Time;durP1;ratioP1;P1;durP2;ratioP2;P2;SDS_P1;SDS_P2;PMS_P1;PMS_P2;Temp;Humidity;BMP_temperature;BMP_pressure;BME280_temperature;BME280_humidity;BME280_pressure;Samples;Min_cycle;Max_cycle;Signal;HPM_P1;HPM_P2
2023/05/01 00:01:17;;;;;;;;;;;;;;;22.19;44.24;100604.94;41515959;28;19929;-76
2023/05/01 00:21:18;;;;;;;;;;;;;;;22.19;44.29;100599.69;41553806;28;24114;-76
2023/05/01 00:41:24;;;;;;;;;;;;;;;22.20;44.62;100596.09;41476679;28;19928;-75
2023/05/01 01:01:25;;;;;;;;;;;;;;;22.16;44.64;100592.00;41551461;28;20027;-76
2023/05/01 01:21:26;;;;;;;;;;;;;;;22.16;44.49;100599.06;41513331;28;19921;-76
2023/05/01 01:41:30;;;;;;;;;;;;;;;22.14;44.41;100599.22;41538003;28;19925;-75
2023/05/01 02:01:32;;;;;;;;;;;;;;;22.11;44.48;100602.06;41516235;28;19992;-75
2023/05/01 02:21:34;;;;;;;;;;;;;;;22.09;44.62;100600.50;41497727;28;19925;-76
2023/05/01 02:41:36;;;;;;;;;;;;;;;22.07;44.66;100603.28;41585896;28;20283;-77
2023/05/01 03:01:36;;;;;;;;;;;;;;;22.05;44.96;100611.28;41508621;28;19925;-76
2023/05/01 03:21:36;;;;;;;;;;;;;;;22.04;44.70;100611.41;41558813;28;19925;-76
2023/05/01 03:41:38;;;;;;;;;;;;;;;22.02;44.88;100630.00;41490109;28;19940;-77
2023/05/01 04:01:39;;;;;;;;;;;;;;;22.01;45.02;100627.50;41533158;28;20349;-77
2023/05/01 04:21:46;;;;;;;;;;;;;;;21.98;45.04;100632.97;41544099;28;19992;-75
2023/05/01 04:41:46;;;;;;;;;;;;;;;21.98;45.01;100639.09;41572199;28;19921;-75
2023/05/01 05:01:46;;;;;;;;;;;;;;;21.99;45.16;100653.94;41488438;28;19925;-76
2023/05/01 05:21:47;;;;;;;;;;;;;;;21.97;44.88;100653.25;41502138;28;20293;-76
2023/05/01 05:41:48;;;;;;;;;;;;;;;22.04;45.26;100669.44;41498535;28;19945;-77
2023/05/01 06:01:48;;;;;;;;;;;;;;;22.13;44.45;100671.38;41552232;28;19946;-83
2023/05/01 06:21:49;;;;;;;;;;;;;;;22.11;41.54;100677.72;41518618;28;19922;-80
2023/05/01 06:41:50;;;;;;;;;;;;;;;22.03;39.91;100681.78;41450399;28;19972;-82
2023/05/01 07:01:57;;;;;;;;;;;;;;;22.11;41.59;100683.00;41631214;28;19925;-85
2023/05/01 07:21:57;;;;;;;;;;;;;;;22.15;42.52;100690.53;41610482;28;19932;-84
2023/05/01 07:41:57;;;;;;;;;;;;;;;21.84;33.39;100686.78;41587464;28;19928;-82
2023/05/01 08:01:58;;;;;;;;;;;;;;;21.54;30.90;100686.25;41534677;28;20454;-78
2023/05/01 08:21:59;;;;;;;;;;;;;;;21.32;29.85;100692.28;41476995;28;19936;-78
2023/05/01 08:42:00;;;;;;;;;;;;;;;21.21;30.88;100682.53;41505544;28;19929;-79
2023/05/01 09:02:03;;;;;;;;;;;;;;;21.00;29.56;100663.03;41441222;28;19925;-80
2023/05/01 09:22:03;;;;;;;;;;;;;;;21.04;32.50;100656.59;41514129;28;20003;-80
2023/05/01 09:42:04;;;;;;;;;;;;;;;21.23;33.23;100661.38;41495821;28;20383;-78
2023/05/01 10:02:07;;;;;;;;;;;;;;;21.37;33.13;100644.53;41524744;28;19933;-79
2023/05/01 10:22:08;;;;;;;;;;;;;;;21.57;32.32;100620.22;41561721;28;19926;-76
2023/05/01 10:42:13;;;;;;;;;;;;;;;21.87;36.03;100594.25;41551808;28;19940;-77
2023/05/01 11:02:20;;;;;;;;;;;;;;;22.21;38.75;100587.19;41510445;28;19969;-76
2023/05/01 11:22:20;;;;;;;;;;;;;;;22.47;31.83;100575.56;41451208;28;19921;-78
2023/05/01 11:42:22;;;;;;;;;;;;;;;22.62;34.71;100550.59;41482475;28;19929;-76
2023/05/01 12:02:26;;;;;;;;;;;;;;;22.81;34.59;100535.88;41464946;28;19921;-79
2023/05/01 12:22:28;;;;;;;;;;;;;;;23.00;32.90;100520.19;41462329;28;19929;-80
2023/05/01 12:42:28;;;;;;;;;;;;;;;23.23;33.26;100493.69;41489560;28;20016;-79
2023/05/01 13:02:32;;;;;;;;;;;;;;;23.41;31.94;100479.88;41466846;28;20387;-79
2023/05/01 13:22:33;;;;;;;;;;;;;;;23.60;33.12;100460.66;41443052;28;19925;-76
2023/05/01 13:42:35;;;;;;;;;;;;;;;23.69;33.63;100443.13;41455590;28;21205;-74
2023/05/01 14:02:41;;;;;;;;;;;;;;;23.75;34.69;100419.63;41445427;28;19960;-74
2023/05/01 14:22:50;;;;;;;;;;;;;;;23.81;35.49;100407.69;41500159;28;19925;-74
2023/05/01 14:42:50;;;;;;;;;;;;;;;23.83;36.13;100393.34;41501803;28;19970;-74
2023/05/01 15:02:54;;;;;;;;;;;;;;;23.88;36.44;100377.09;41527649;28;19925;-73
2023/05/01 15:22:55;;;;;;;;;;;;;;;23.98;36.50;100362.09;41481257;28;19929;-73
2023/05/01 15:42:55;;;;;;;;;;;;;;;24.30;35.96;100353.06;41504243;28;19926;-73
2023/05/01 16:02:56;;;;;;;;;;;;;;;24.57;36.05;100363.88;41483696;28;20620;-72
2023/05/01 16:22:57;;;;;;;;;;;;;;;24.43;37.42;100363.34;41472463;28;20387;-72
2023/05/01 16:43:01;;;;;;;;;;;;;;;24.23;38.35;100353.72;41384077;28;19925;-73
2023/05/01 17:03:01;;;;;;;;;;;;;;;24.02;34.79;100354.72;41471062;28;19924;-73
2023/05/01 17:23:02;;;;;;;;;;;;;;;23.85;34.57;100355.38;41478302;28;19921;-72
2023/05/01 17:43:03;;;;;;;;;;;;;;;23.68;33.15;100355.06;41530896;28;19975;-72
2023/05/01 18:03:03;;;;;;;;;;;;;;;23.54;32.63;100340.41;41492174;28;19933;-73
2023/05/01 18:23:04;;;;;;;;;;;;;;;23.62;40.92;100347.66;41526137;28;19936;-81
2023/05/01 18:43:04;;;;;;;;;;;;;;;23.63;42.38;100358.13;41521036;28;19925;-78
2023/05/01 19:03:06;;;;;;;;;;;;;;;23.57;40.81;100374.53;41545282;28;20403;-77
2023/05/01 19:23:06;;;;;;;;;;;;;;;23.49;41.59;100379.63;41480652;28;19988;-76
2023/05/01 19:43:07;;;;;;;;;;;;;;;23.38;41.40;100369.19;41437967;28;19925;-76
2023/05/01 20:03:09;;;;;;;;;;;;;;;23.30;41.16;100377.75;41503210;28;19925;-74
2023/05/01 20:23:10;;;;;;;;;;;;;;;23.22;41.12;100378.44;41453436;28;19967;-76
2023/05/01 20:43:14;;;;;;;;;;;;;;;23.17;41.21;100380.63;41485646;28;19925;-75
2023/05/01 21:03:14;;;;;;;;;;;;;;;23.11;41.78;100404.91;41472354;28;19928;-77
2023/05/01 21:23:15;;;;;;;;;;;;;;;23.10;42.09;100413.78;41524406;28;20395;-75
2023/05/01 21:43:17;;;;;;;;;;;;;;;23.07;41.82;100425.47;41450974;28;19987;-77
2023/05/01 22:03:17;;;;;;;;;;;;;;;23.00;41.97;100425.13;41547221;28;19925;-78
2023/05/01 22:23:23;;;;;;;;;;;;;;;22.95;42.09;100414.13;41539573;28;19956;-77
2023/05/01 22:43:23;;;;;;;;;;;;;;;22.92;42.46;100419.66;41557304;28;19947;-76
2023/05/01 23:03:23;;;;;;;;;;;;;;;22.91;42.16;100414.50;41580144;28;19929;-75
2023/05/01 23:23:29;;;;;;;;;;;;;;;22.89;42.10;100409.38;41455280;28;20669;-76
2023/05/01 23:43:29;;;;;;;;;;;;;;;22.84;41.88;100417.66;41436503;28;20405;-76
